createdAt,value
2023-03-04T01:09:40.740Z,1018.38
2023-03-04T01:46:32.663Z,1017.95
2023-03-04T02:00:32.670Z,1017.81
2023-03-04T03:00:35.151Z,1017.26
2023-03-04T03:29:18.748Z,1017.12
2023-03-04T04:41:00.104Z,1017.04
2023-03-04T04:55:00.416Z,1017.06
2023-03-04T05:14:16.441Z,1017.19
2023-03-04T05:52:31.289Z,1017.04
2023-03-04T06:24:48.208Z,1017.32
2023-03-04T07:21:00.542Z,1017.37
2023-03-04T07:36:01.128Z,1017.3
2023-03-04T07:54:56.855Z,1017.29
2023-03-04T08:09:56.862Z,1017.33
2023-03-04T08:35:23.357Z,1017.17
2023-03-04T08:50:23.333Z,1017.14
2023-03-04T09:42:00.272Z,1016.92
2023-03-04T09:57:32.010Z,1016.82
2023-03-04T10:26:28.743Z,1016.67
2023-03-04T11:19:28.122Z,1016.03
2023-03-04T12:05:40.799Z,1015.25
2023-03-04T12:21:41.414Z,1015.17
2023-03-04T12:56:46.091Z,1014.7
2023-03-04T13:18:41.666Z,1014.44
2023-03-04T13:56:45.940Z,1013.95
2023-03-04T14:23:33.646Z,1013.72
2023-03-04T14:59:24.009Z,1013.34
2023-03-04T15:55:25.560Z,1013.02
2023-03-04T16:11:25.560Z,1013.01
2023-03-04T16:46:13.785Z,1012.92
2023-03-04T17:04:56.613Z,1013.01
2023-03-04T17:32:25.769Z,1013.06
2023-03-04T17:57:14.262Z,1013.28
2023-03-04T18:31:44.388Z,1013.41
2023-03-04T19:01:55.769Z,1013.55
2023-03-04T19:27:32.495Z,1013.67
2023-03-04T19:42:04.474Z,1013.64
2023-03-04T22:02:49.634Z,1013.75
2023-03-04T22:16:55.162Z,1013.56
2023-03-04T22:40:45.362Z,1013.54
2023-03-04T23:03:00.728Z,1013.42
2023-03-04T23:41:51.432Z,1013.38
